Time;durP1;ratioP1;P1;durP2;ratioP2;P2;SDS_P1;SDS_P2;PMS_P1;PMS_P2;Temp;Humidity;BMP_temperature;BMP_pressure;BME280_temperature;BME280_humidity;BME280_pressure;Samples;Min_cycle;Max_cycle;Signal;HPM_P1;HPM_P2
2022/05/28 00:00:13;;;;;;;9.85;8.90;;;27.30;1.00;;;;;;5007103;28;20029;-46
2022/05/28 00:02:38;;;;;;;10.07;8.73;;;27.40;1.00;;;;;;5009810;28;20042;-49
2022/05/28 00:05:05;;;;;;;10.10;8.68;;;27.30;1.00;;;;;;5011068;28;20096;-43
2022/05/28 00:07:31;;;;;;;9.93;7.95;;;27.20;1.00;;;;;;5003634;28;20093;-49
2022/05/28 00:09:56;;;;;;;11.23;8.88;;;27.20;1.00;;;;;;5010785;28;20042;-43
2022/05/28 00:12:24;;;;;;;10.38;8.73;;;27.20;1.00;;;;;;5011320;28;20492;-48
2022/05/28 00:14:50;;;;;;;10.48;8.70;;;27.20;1.00;;;;;;5013111;28;20022;-46
2022/05/28 00:17:15;;;;;;;11.32;9.35;;;27.10;1.00;;;;;;5016212;28;20432;-43
2022/05/28 00:19:41;;;;;;;9.80;8.75;;;27.10;1.00;;;;;;5003661;28;20022;-44
2022/05/28 00:22:07;;;;;;;11.35;8.32;;;27.20;1.00;;;;;;5015855;28;20451;-43
2022/05/28 00:24:33;;;;;;;12.95;8.85;;;27.10;1.00;;;;;;5014197;28;20554;-46
2022/05/28 00:26:58;;;;;;;9.30;8.43;;;26.90;1.00;;;;;;5016210;28;20353;-49
2022/05/28 00:29:24;;;;;;;10.15;9.05;;;26.90;1.00;;;;;;5002046;28;20384;-44
2022/05/28 00:31:49;;;;;;;12.73;8.90;;;26.80;1.00;;;;;;5015818;28;20022;-45
2022/05/28 00:34:15;;;;;;;13.82;9.45;;;26.70;1.00;;;;;;5015265;28;20030;-44
2022/05/28 00:36:41;;;;;;;19.38;9.95;;;26.70;1.00;;;;;;5015397;28;20038;-44
2022/05/28 00:39:06;;;;;;;10.15;9.25;;;26.80;1.00;;;;;;5014545;28;20033;-44
2022/05/28 00:41:34;;;;;;;11.32;9.68;;;26.80;1.00;;;;;;4999732;28;20042;-46
2022/05/28 00:43:59;;;;;;;11.02;9.93;;;26.80;1.00;;;;;;4994530;28;20080;-47
2022/05/28 00:46:27;;;;;;;11.30;8.98;;;26.70;1.00;;;;;;5008705;28;20062;-44
2022/05/28 00:48:57;;;;;;;10.85;9.68;;;26.80;1.00;;;;;;4996115;28;20073;-45
2022/05/28 00:51:27;;;;;;;14.43;9.63;;;26.70;1.00;;;;;;5009782;28;20044;-45
2022/05/28 00:53:56;;;;;;;13.13;10.35;;;26.60;1.00;;;;;;5008560;28;20459;-44
2022/05/28 00:56:22;;;;;;;13.60;9.90;;;26.60;1.00;;;;;;5011835;28;20037;-44
2022/05/28 00:58:49;;;;;;;10.23;9.23;;;26.50;1.00;;;;;;5015422;28;20411;-44
2022/05/28 01:01:16;;;;;;;11.85;10.07;;;26.70;1.00;;;;;;5014204;28;20040;-44
2022/05/28 01:03:50;;;;;;;13.88;9.60;;;26.70;1.00;;;;;;5014147;28;20049;-44
2022/05/28 01:06:54;;;;;;;10.90;9.65;;;26.60;1.00;;;;;;5012297;28;20099;-45
2022/05/28 01:09:31;;;;;;;12.18;9.73;;;26.60;1.00;;;;;;5001320;28;20045;-44
2022/05/28 01:12:14;;;;;;;11.73;9.82;;;26.50;1.00;;;;;;5004606;28;20026;-44
2022/05/28 01:15:11;;;;;;;11.15;9.90;;;26.50;1.00;;;;;;5013856;28;20026;-47
2022/05/28 01:17:43;;;;;;;11.15;9.82;;;26.40;1.00;;;;;;5014595;28;20040;-46
2022/05/28 01:20:23;;;;;;;11.52;9.95;;;26.40;1.00;;;;;;5005266;28;20027;-45
2022/05/28 01:23:08;;;;;;;13.05;9.35;;;26.40;1.00;;;;;;5010861;28;20041;-45
2022/05/28 01:26:00;;;;;;;12.02;9.90;;;26.30;1.00;;;;;;5012044;28;20409;-45
2022/05/28 01:28:40;;;;;;;11.32;9.80;;;26.40;1.00;;;;;;5013799;28;20108;-44
2022/05/28 01:31:06;;;;;;;12.27;10.07;;;26.20;1.00;;;;;;5013097;28;20029;-43
2022/05/28 01:33:35;;;;;;;14.18;8.88;;;26.20;1.00;;;;;;5005187;28;20019;-45
2022/05/28 01:36:04;;;;;;;11.35;10.07;;;26.20;1.00;;;;;;5013159;28;20125;-43
2022/05/28 01:38:31;;;;;;;11.52;10.02;;;26.30;1.00;;;;;;5013585;28;20033;-46
2022/05/28 01:40:57;;;;;;;15.35;10.75;;;26.30;1.00;;;;;;5001126;28;20038;-44
2022/05/28 01:43:25;;;;;;;13.15;9.90;;;26.30;1.00;;;;;;5011471;28;20035;-46
2022/05/28 01:45:51;;;;;;;14.20;9.93;;;26.30;1.00;;;;;;5011531;28;20037;-44
2022/05/28 01:48:19;;;;;;;11.50;9.45;;;26.10;1.00;;;;;;5012931;28;20025;-45
2022/05/28 01:50:48;;;;;;;10.45;9.48;;;26.20;1.00;;;;;;5012701;28;20488;-46
2022/05/28 01:56:03;;;;;;;11.85;9.43;;;26.20;1.00;;;;;;5012398;28;20033;-44
2022/05/28 01:58:29;;;;;;;10.10;9.15;;;26.00;1.00;;;;;;5010492;28;20025;-45
2022/05/28 02:00:55;;;;;;;11.95;9.57;;;25.90;1.00;;;;;;5012128;28;20093;-44
2022/05/28 02:03:21;;;;;;;10.05;8.88;;;26.10;1.00;;;;;;5012695;28;20117;-44
2022/05/28 02:05:52;;;;;;;10.43;9.40;;;26.10;1.00;;;;;;5012848;28;20046;-44
2022/05/28 02:08:18;;;;;;;10.40;9.35;;;26.20;1.00;;;;;;5013887;28;20080;-44
2022/05/28 02:10:52;;;;;;;11.98;9.68;;;26.20;1.00;;;;;;5044144;28;20063;-44
2022/05/28 02:13:24;;;;;;;;;;;26.10;1.00;;;;;;5010631;28;20113;-43
2022/05/28 02:16:01;;;;;;;12.15;9.18;;;26.10;1.00;;;;;;4995725;28;19916;-43
2022/05/28 02:18:45;;;;;;;14.35;10.20;;;25.90;1.00;;;;;;5005413;28;20092;-44
2022/05/28 02:21:30;;;;;;;9.90;8.95;;;25.90;1.00;;;;;;5011335;28;20037;-45
2022/05/28 02:24:12;;;;;;;11.88;9.60;;;25.80;1.00;;;;;;4998307;28;20411;-44
2022/05/28 02:26:53;;;;;;;11.40;9.00;;;25.80;1.00;;;;;;5012850;28;20133;-46
2022/05/28 02:29:19;;;;;;;10.85;9.35;;;25.80;1.00;;;;;;5005986;28;20481;-44
2022/05/28 02:31:49;;;;;;;12.73;9.80;;;25.70;1.00;;;;;;5012676;28;20040;-44
2022/05/28 02:34:17;;;;;;;10.18;9.15;;;25.80;1.00;;;;;;5008421;28;20022;-44
2022/05/28 02:36:43;;;;;;;11.43;8.88;;;25.90;1.00;;;;;;5012438;28;20471;-44
2022/05/28 02:39:09;;;;;;;10.35;8.75;;;25.90;1.00;;;;;;5001516;28;20029;-43
2022/05/28 02:41:35;;;;;;;13.10;9.88;;;25.80;1.00;;;;;;5010487;28;20104;-44
2022/05/28 02:44:01;;;;;;;9.10;8.07;;;25.70;1.00;;;;;;5011660;28;20112;-43
2022/05/28 02:46:26;;;;;;;11.27;9.13;;;25.80;1.00;;;;;;5005321;28;20538;-44
2022/05/28 02:48:52;;;;;;;11.45;9.15;;;25.90;1.00;;;;;;5013313;28;20133;-44
2022/05/28 02:51:20;;;;;;;10.35;9.35;;;25.80;1.00;;;;;;5011314;28;20029;-46
2022/05/28 02:53:48;;;;;;;12.73;9.32;;;25.60;1.00;;;;;;5004291;28;20064;-45
2022/05/28 02:56:14;;;;;;;14.80;8.63;;;25.60;1.00;;;;;;5011574;28;20446;-44
2022/05/28 02:58:40;;;;;;;11.50;8.65;;;25.60;1.00;;;;;;5012818;28;20030;-44
2022/05/28 03:01:17;;;;;;;10.50;7.28;;;25.60;1.00;;;;;;5011916;28;20041;-44
2022/05/28 03:03:43;;;;;;;9.57;7.57;;;25.50;1.00;;;;;;5012403;28;20132;-44
2022/05/28 03:06:08;;;;;;;8.98;7.72;;;25.50;1.00;;;;;;5010627;28;20095;-44
2022/05/28 03:08:34;;;;;;;11.70;8.75;;;25.40;1.00;;;;;;5000779;28;20056;-47
2022/05/28 03:11:00;;;;;;;8.35;7.28;;;25.50;1.00;;;;;;5011683;28;20018;-44
2022/05/28 03:13:25;;;;;;;7.03;6.32;;;25.50;1.00;;;;;;5011220;28;20479;-43
2022/05/28 03:15:51;;;;;;;7.40;6.32;;;25.50;1.00;;;;;;5011634;28;20472;-46
2022/05/28 03:18:17;;;;;;;6.80;5.80;;;25.50;1.00;;;;;;5009831;28;20087;-44
2022/05/28 03:20:42;;;;;;;7.78;6.90;;;25.60;1.00;;;;;;5009364;28;20068;-48
2022/05/28 03:23:08;;;;;;;8.18;6.22;;;25.60;1.00;;;;;;5012592;28;20029;-45
2022/05/28 03:25:34;;;;;;;7.72;5.95;;;25.60;1.00;;;;;;5009650;28;20041;-45
2022/05/28 03:27:59;;;;;;;7.95;6.03;;;25.50;1.00;;;;;;5010914;28;20502;-44
2022/05/28 03:30:25;;;;;;;7.45;5.65;;;25.60;1.00;;;;;;5010185;28;20022;-45
2022/05/28 03:32:51;;;;;;;9.48;5.53;;;25.50;1.00;;;;;;5012271;28;20026;-45
2022/05/28 03:35:16;;;;;;;7.10;5.70;;;25.50;1.00;;;;;;5011460;28;20057;-46
2022/05/28 03:37:42;;;;;;;9.68;5.53;;;25.50;1.00;;;;;;4990092;28;20034;-44
2022/05/28 03:40:08;;;;;;;11.98;5.55;;;25.60;1.00;;;;;;5011763;28;20022;-44
2022/05/28 03:42:34;;;;;;;11.30;6.60;;;25.60;1.00;;;;;;5011817;28;20045;-44
2022/05/28 03:45:00;;;;;;;7.15;6.38;;;25.50;1.00;;;;;;5012605;28;20022;-44
2022/05/28 03:47:25;;;;;;;8.27;7.10;;;25.60;1.00;;;;;;5006664;28;20527;-43
2022/05/28 03:49:51;;;;;;;8.55;7.57;;;25.40;1.00;;;;;;5010331;28;20475;-43
2022/05/28 03:52:17;;;;;;;12.60;8.60;;;25.40;1.00;;;;;;5013346;28;20052;-43
2022/05/28 03:54:45;;;;;;;10.32;7.75;;;25.40;1.00;;;;;;5016398;28;20353;-43
2022/05/28 03:57:19;;;;;;;8.75;7.90;;;25.40;1.00;;;;;;5014935;28;20026;-47
2022/05/28 03:59:44;;;;;;;15.32;10.63;;;25.40;1.00;;;;;;5015956;28;20052;-44
2022/05/28 04:02:11;;;;;;;14.15;10.63;;;25.40;1.00;;;;;;5007074;28;20136;-43
2022/05/28 04:04:37;;;;;;;12.57;9.95;;;25.40;1.00;;;;;;5000972;28;20097;-45
2022/05/28 04:07:03;;;;;;;15.40;11.38;;;25.30;1.00;;;;;;5008422;28;20026;-44
2022/05/28 04:09:29;;;;;;;15.75;12.73;;;25.30;1.00;;;;;;5008294;28;20026;-46
2022/05/28 04:11:55;;;;;;;21.63;17.48;;;25.30;1.00;;;;;;5005779;28;20030;-43
2022/05/28 04:14:20;;;;;;;26.85;18.67;;;25.20;1.00;;;;;;4998155;28;20495;-46
2022/05/28 04:16:46;;;;;;;24.83;18.15;;;25.20;1.00;;;;;;5040231;28;20040;-45
2022/05/28 04:19:12;;;;;;;22.60;18.88;;;25.20;1.00;;;;;;5013719;28;20105;-45
2022/05/28 04:21:38;;;;;;;25.08;19.00;;;25.10;1.00;;;;;;5005760;28;20039;-47
2022/05/28 04:24:04;;;;;;;27.35;19.90;;;25.10;1.00;;;;;;5014821;28;20045;-47
2022/05/28 04:29:52;;;;;;;27.63;19.90;;;25.10;1.00;;;;;;5008774;28;20441;-43
2022/05/28 04:32:17;;;;;;;24.08;18.63;;;25.00;1.00;;;;;;5011903;28;20109;-43
2022/05/28 04:34:43;;;;;;;23.42;18.73;;;25.10;1.00;;;;;;5015389;28;20030;-44
2022/05/28 04:37:09;;;;;;;24.45;18.27;;;25.10;1.00;;;;;;5014587;28;20040;-47
2022/05/28 04:39:35;;;;;;;23.55;18.52;;;25.20;1.00;;;;;;5013183;28;20076;-44
2022/05/28 04:42:00;;;;;;;24.20;19.47;;;25.20;1.00;;;;;;5012593;28;20465;-44
2022/05/28 04:44:26;;;;;;;24.70;18.05;;;25.10;1.00;;;;;;5015084;28;20034;-45
2022/05/28 04:46:52;;;;;;;23.67;20.27;;;25.10;1.00;;;;;;5013182;28;20430;-46
2022/05/28 04:49:18;;;;;;;22.75;19.98;;;25.00;1.00;;;;;;5013132;28;20467;-46
2022/05/28 04:51:43;;;;;;;28.25;19.20;;;25.00;1.00;;;;;;5008560;28;20026;-46
2022/05/28 04:54:09;;;;;;;24.23;19.70;;;25.10;1.00;;;;;;5014849;28;20547;-44
2022/05/28 04:56:34;;;;;;;26.65;20.17;;;24.90;1.00;;;;;;5013908;28;20113;-45
2022/05/28 04:59:00;;;;;;;22.17;17.95;;;25.00;1.00;;;;;;5014947;28;20029;-43
2022/05/28 05:01:26;;;;;;;23.90;18.73;;;25.10;1.00;;;;;;5012378;28;20045;-49
2022/05/28 05:03:52;;;;;;;26.88;21.00;;;25.00;1.00;;;;;;5014457;28;20064;-43
2022/05/28 05:06:18;;;;;;;22.52;19.27;;;25.00;1.00;;;;;;5006195;28;20029;-50
2022/05/28 05:08:44;;;;;;;23.13;20.05;;;25.00;1.00;;;;;;5029415;28;20026;-44
2022/05/28 05:11:11;;;;;;;22.90;19.55;;;25.00;1.00;;;;;;5013938;28;20380;-45
2022/05/28 05:13:36;;;;;;;25.10;19.50;;;24.90;1.00;;;;;;5014799;28;20549;-44
2022/05/28 05:16:08;;;;;;;22.70;19.65;;;25.00;1.00;;;;;;5007705;28;20030;-44
2022/05/28 05:18:34;;;;;;;23.98;19.08;;;25.00;1.00;;;;;;5013101;28;20430;-44
2022/05/28 05:21:00;;;;;;;24.60;18.27;;;25.00;1.00;;;;;;5006692;28;20022;-45
2022/05/28 05:23:25;;;;;;;22.88;19.02;;;25.00;1.00;;;;;;5014338;28;20042;-44
2022/05/28 05:25:51;;;;;;;23.67;19.42;;;24.90;1.00;;;;;;5013692;28;20018;-43
2022/05/28 05:28:17;;;;;;;24.15;19.20;;;25.00;1.00;;;;;;5013826;28;20460;-44
2022/05/28 05:30:42;;;;;;;22.52;18.67;;;25.10;1.00;;;;;;5004198;28;20080;-45
2022/05/28 05:33:08;;;;;;;24.58;18.20;;;25.00;1.00;;;;;;5011499;28;20376;-48
2022/05/28 05:35:33;;;;;;;24.02;19.23;;;25.00;1.00;;;;;;5014287;28;20022;-47
2022/05/28 05:38:05;;;;;;;22.58;17.75;;;25.00;1.00;;;;;;5012190;28;20472;-44
2022/05/28 05:40:34;;;;;;;20.58;18.38;;;25.10;1.00;;;;;;5004847;28;20061;-44
2022/05/28 05:43:00;;;;;;;24.83;18.20;;;25.10;1.00;;;;;;5011462;28;20034;-46
2022/05/28 05:45:26;;;;;;;24.65;18.40;;;25.10;1.00;;;;;;5012014;28;20407;-45
2022/05/28 05:47:52;;;;;;;25.90;17.85;;;25.20;1.00;;;;;;5012712;28;20116;-44
2022/05/28 05:53:40;;;;;;;20.45;16.83;;;25.20;1.00;;;;;;4996406;28;20064;-43
2022/05/28 05:56:06;;;;;;;23.48;17.23;;;25.20;1.00;;;;;;5012843;28;20069;-43
2022/05/28 05:58:34;;;;;;;23.73;16.67;;;25.30;1.00;;;;;;5013506;28;20028;-43
2022/05/28 06:01:02;;;;;;;27.70;16.67;;;25.30;1.00;;;;;;5012872;28;20396;-44
2022/05/28 06:03:28;;;;;;;21.35;16.67;;;25.30;1.00;;;;;;5012107;28;20041;-44
2022/05/28 06:06:01;;;;;;;19.02;16.35;;;25.40;1.00;;;;;;5012727;28;20034;-44
2022/05/28 06:08:28;;;;;;;21.40;15.35;;;25.50;1.00;;;;;;5010677;28;20464;-45
2022/05/28 06:10:54;;;;;;;20.92;15.48;;;25.50;1.00;;;;;;5002216;28;20028;-44
2022/05/28 06:13:19;;;;;;;22.77;15.30;;;25.60;1.00;;;;;;5012913;28;20026;-46
2022/05/28 06:15:46;;;;;;;23.45;16.60;;;25.70;1.00;;;;;;5011760;28;20037;-44
2022/05/28 06:18:16;;;;;;;22.52;16.08;;;25.60;1.00;;;;;;5011330;28;20057;-44
2022/05/28 06:20:42;;;;;;;21.52;14.23;;;25.70;1.00;;;;;;5008508;28;20376;-44
2022/05/28 06:23:08;;;;;;;20.05;15.48;;;25.80;1.00;;;;;;5000759;28;20045;-45
2022/05/28 06:25:36;;;;;;;18.90;14.68;;;25.70;1.00;;;;;;5033140;28;20081;-43
2022/05/28 06:28:01;;;;;;;17.70;15.35;;;25.80;1.00;;;;;;5010804;28;20026;-44
2022/05/28 06:30:27;;;;;;;20.52;15.10;;;25.70;1.00;;;;;;5012652;28;20112;-47
2022/05/28 06:32:53;;;;;;;22.10;14.57;;;25.80;1.00;;;;;;5006222;28;20108;-45
2022/05/28 06:35:19;;;;;;;18.67;14.48;;;25.70;1.00;;;;;;5011351;28;20030;-47
2022/05/28 06:37:44;;;;;;;25.38;15.30;;;25.60;1.00;;;;;;5013887;28;20372;-43
2022/05/28 06:40:10;;;;;;;18.30;14.65;;;25.60;1.00;;;;;;5012176;28;20030;-46
2022/05/28 06:42:36;;;;;;;22.83;14.05;;;25.60;1.00;;;;;;5013236;28;20617;-45
2022/05/28 06:45:02;;;;;;;19.23;14.48;;;25.50;1.00;;;;;;5008487;28;20033;-45
2022/05/28 06:47:28;;;;;;;27.98;15.48;;;25.60;1.00;;;;;;5011564;28;20025;-45
2022/05/28 06:52:37;;;;;;;17.25;13.00;;;25.70;1.00;;;;;;5000261;28;20037;-46
2022/05/28 06:55:04;;;;;;;20.85;14.88;;;25.70;1.00;;;;;;5007866;28;20037;-44
2022/05/28 06:57:30;;;;;;;22.45;14.13;;;25.80;1.00;;;;;;5010736;28;20038;-45
2022/05/28 06:59:58;;;;;;;21.67;15.00;;;25.80;1.00;;;;;;5010269;28;20584;-43
2022/05/28 07:02:24;;;;;;;20.35;15.25;;;25.90;1.00;;;;;;5012883;28;20411;-46
2022/05/28 07:04:50;;;;;;;21.40;14.77;;;26.00;1.00;;;;;;5009616;28;20034;-47
2022/05/28 07:07:15;;;;;;;17.38;15.55;;;26.00;1.00;;;;;;5012891;28;20156;-43
2022/05/28 07:09:41;;;;;;;22.63;14.98;;;26.10;1.00;;;;;;5011449;28;20068;-43
2022/05/28 07:12:07;;;;;;;20.65;15.38;;;26.10;1.00;;;;;;5011906;28;20040;-45
2022/05/28 07:14:33;;;;;;;24.25;16.80;;;26.10;1.00;;;;;;5013093;28;20534;-44
2022/05/28 07:16:59;;;;;;;24.08;16.67;;;26.10;1.00;;;;;;5003263;28;20034;-46
2022/05/28 07:19:24;;;;;;;18.42;16.25;;;26.00;1.00;;;;;;5012599;28;20386;-44
2022/05/28 07:21:50;;;;;;;22.05;15.57;;;26.10;1.00;;;;;;5011444;28;20026;-45
2022/05/28 07:24:16;;;;;;;22.65;17.25;;;26.20;1.00;;;;;;5013754;28;20042;-49
2022/05/28 07:26:41;;;;;;;24.17;14.93;;;26.20;1.00;;;;;;5011071;28;20022;-46
2022/05/28 07:29:08;;;;;;;20.25;15.43;;;26.30;1.00;;;;;;5016019;28;20034;-49
2022/05/28 07:31:35;;;;;;;19.30;16.08;;;26.40;1.00;;;;;;5003596;28;20033;-44
2022/05/28 07:34:00;;;;;;;23.65;15.45;;;26.40;1.00;;;;;;5016463;28;20117;-45
2022/05/28 07:36:26;;;;;;;23.70;15.68;;;26.50;1.00;;;;;;5002969;28;20117;-44
2022/05/28 07:38:53;;;;;;;21.45;14.55;;;26.50;1.00;;;;;;5005068;28;20104;-44
2022/05/28 07:41:21;;;;;;;18.48;15.02;;;26.50;1.00;;;;;;5015301;28;20109;-43
2022/05/28 07:43:48;;;;;;;18.08;15.35;;;26.60;1.00;;;;;;5014614;28;20048;-43
2022/05/28 07:46:25;;;;;;;20.55;14.85;;;26.70;1.00;;;;;;5014359;28;20108;-45
2022/05/28 07:48:52;;;;;;;19.60;15.38;;;26.60;1.00;;;;;;5003755;28;20022;-43
2022/05/28 07:51:18;;;;;;;19.63;15.10;;;26.50;1.00;;;;;;5013742;28;20036;-43
2022/05/28 07:53:43;;;;;;;25.40;16.52;;;26.50;1.00;;;;;;5008019;28;20535;-49
2022/05/28 07:56:10;;;;;;;19.38;15.00;;;26.50;1.00;;;;;;5014906;28;20125;-43
2022/05/28 07:58:36;;;;;;;18.80;15.60;;;26.60;1.00;;;;;;5020108;28;20033;-43
2022/05/28 08:01:04;;;;;;;22.65;15.30;;;26.60;1.00;;;;;;5014072;28;20104;-43
2022/05/28 08:03:30;;;;;;;18.88;16.08;;;26.60;1.00;;;;;;5014904;28;20072;-43
2022/05/28 08:05:56;;;;;;;19.85;15.30;;;26.60;1.00;;;;;;5011099;28;20081;-44
2022/05/28 08:08:24;;;;;;;23.52;14.90;;;26.60;1.00;;;;;;5008413;28;20537;-43
2022/05/28 08:10:51;;;;;;;23.50;16.67;;;26.60;1.00;;;;;;5009750;28;20504;-44
2022/05/28 08:13:19;;;;;;;19.08;14.50;;;26.70;1.00;;;;;;5005989;28;20065;-45
2022/05/28 08:15:47;;;;;;;20.40;14.45;;;26.70;1.00;;;;;;5014614;28;20026;-47
2022/05/28 08:18:15;;;;;;;21.88;13.98;;;26.70;1.00;;;;;;5016378;28;20030;-48
2022/05/28 08:23:25;;;;;;;21.63;15.30;;;26.80;1.00;;;;;;5015313;28;20514;-49
2022/05/28 08:25:51;;;;;;;15.25;13.05;;;26.90;1.00;;;;;;5014108;28;20026;-45
2022/05/28 08:28:19;;;;;;;21.75;17.00;;;26.90;1.00;;;;;;5014539;28;20061;-46
2022/05/28 08:30:45;;;;;;;19.77;13.73;;;26.90;1.00;;;;;;5012502;28;21823;-43
2022/05/28 08:33:13;;;;;;;19.48;15.23;;;26.90;1.00;;;;;;5015334;28;20026;-45
2022/05/28 08:35:40;;;;;;;17.98;14.82;;;27.00;1.00;;;;;;5008983;28;20032;-44
2022/05/28 08:38:09;;;;;;;23.98;15.52;;;27.00;1.00;;;;;;5015130;28;20117;-45
2022/05/28 08:40:43;;;;;;;22.75;14.02;;;27.10;1.00;;;;;;5005823;28;20065;-45
2022/05/28 08:43:11;;;;;;;20.33;14.02;;;27.20;1.00;;;;;;5015192;28;20088;-46
2022/05/28 08:45:38;;;;;;;20.52;16.13;;;27.20;1.00;;;;;;5013067;28;20030;-46
2022/05/28 08:48:05;;;;;;;19.98;16.13;;;27.30;1.00;;;;;;5015056;28;20098;-48
2022/05/28 08:50:33;;;;;;;17.33;15.57;;;27.40;1.00;;;;;;5014326;28;20353;-45
2022/05/28 08:53:16;;;;;;;24.92;15.70;;;27.40;1.00;;;;;;5013397;28;20022;-44
2022/05/28 08:55:45;;;;;;;17.77;14.45;;;27.50;1.00;;;;;;5000475;28;20508;-43
2022/05/28 08:58:14;;;;;;;21.52;16.65;;;27.60;1.00;;;;;;5014683;28;20168;-43
2022/05/28 09:01:02;;;;;;;20.45;15.32;;;27.60;1.00;;;;;;5013842;28;20022;-42
2022/05/28 09:03:54;;;;;;;21.52;17.05;;;27.60;1.00;;;;;;5003795;28;20074;-44
2022/05/28 09:06:24;;;;;;;17.38;13.77;;;27.60;1.00;;;;;;4959100;28;20039;-46
2022/05/28 09:08:53;;;;;;;19.88;14.38;;;27.60;1.00;;;;;;4970190;28;20109;-45
2022/05/28 09:11:28;;;;;;;21.70;15.73;;;27.60;1.00;;;;;;4974350;28;20117;-43
2022/05/28 09:13:55;;;;;;;20.52;16.23;;;27.60;1.00;;;;;;4975403;28;20045;-45
2022/05/28 09:16:29;;;;;;;20.30;14.90;;;27.60;1.00;;;;;;4974473;28;20023;-45
2022/05/28 09:18:59;;;;;;;19.50;15.50;;;27.60;1.00;;;;;;4975332;28;20034;-43
2022/05/28 09:21:25;;;;;;;22.40;15.95;;;27.70;1.00;;;;;;4972843;28;20038;-44
2022/05/28 09:24:09;;;;;;;21.30;16.00;;;27.60;1.00;;;;;;4966307;28;20035;-43
2022/05/28 09:26:58;;;;;;;23.73;14.88;;;27.60;1.00;;;;;;4973136;28;20476;-45
2022/05/28 09:29:59;;;;;;;19.30;14.93;;;27.60;1.00;;;;;;4975318;28;20094;-43
2022/05/28 09:32:25;;;;;;;20.52;15.00;;;27.70;1.00;;;;;;4966783;28;20035;-42
2022/05/28 09:34:53;;;;;;;18.50;15.20;;;27.70;1.00;;;;;;4974773;28;20033;-44
2022/05/28 09:37:38;;;;;;;19.38;12.95;;;27.80;1.00;;;;;;4970131;28;20033;-43
2022/05/28 09:40:31;;;;;;;20.88;14.43;;;27.90;1.00;;;;;;4965024;28;20034;-44
2022/05/28 09:43:24;;;;;;;22.92;13.73;;;27.90;1.00;;;;;;4974276;28;20134;-45
2022/05/28 09:46:05;;;;;;;19.40;13.48;;;27.90;1.00;;;;;;4964130;28;20031;-44
2022/05/28 09:48:30;;;;;;;18.20;11.40;;;27.90;1.00;;;;;;4971610;28;20434;-46
2022/05/28 09:50:56;;;;;;;18.30;13.82;;;28.10;1.00;;;;;;4973070;28;20057;-43
2022/05/28 09:56:37;;;;;;;18.15;13.65;;;28.50;1.00;;;;;;4956714;28;20050;-43
2022/05/28 09:59:32;;;;;;;15.27;11.98;;;28.40;1.00;;;;;;4959615;28;20428;-46
2022/05/28 10:02:13;;;;;;;15.55;9.90;;;28.40;1.00;;;;;;4968462;28;20038;-48
2022/05/28 10:04:51;;;;;;;13.65;10.18;;;28.40;1.00;;;;;;4992739;28;20129;-45
2022/05/28 10:07:32;;;;;;;16.80;10.80;;;28.50;1.00;;;;;;5001791;28;20047;-45
2022/05/28 10:09:58;;;;;;;13.95;11.93;;;28.40;1.00;;;;;;4999247;28;20030;-49
2022/05/28 10:12:30;;;;;;;15.23;10.02;;;29.00;1.00;;;;;;5005073;28;20095;-45
2022/05/28 10:15:11;;;;;;;15.35;8.32;;;29.30;1.00;;;;;;5014016;28;20026;-46
2022/05/28 10:17:38;;;;;;;15.43;9.55;;;29.40;1.00;;;;;;5012086;28;20464;-45
2022/05/28 10:20:17;;;;;;;15.77;9.02;;;29.10;1.00;;;;;;5014129;28;20022;-47
2022/05/28 10:22:45;;;;;;;12.60;8.50;;;29.30;1.00;;;;;;5005540;28;20109;-46
2022/05/28 10:25:46;;;;;;;16.52;9.07;;;29.10;1.00;;;;;;4999539;28;20368;-47
2022/05/28 10:28:12;;;;;;;11.65;7.75;;;29.40;1.00;;;;;;5002634;28;20534;-46
2022/05/28 10:30:43;;;;;;;12.15;8.50;;;29.80;1.00;;;;;;5013940;28;20029;-48
2022/05/28 10:33:19;;;;;;;11.52;7.70;;;29.70;1.00;;;;;;5012623;28;20033;-47
2022/05/28 10:35:45;;;;;;;14.55;10.13;;;29.50;1.00;;;;;;5013262;28;20538;-46
2022/05/28 10:38:11;;;;;;;12.77;8.90;;;29.90;1.00;;;;;;5010074;28;20030;-46
2022/05/28 10:40:49;;;;;;;10.77;8.98;;;30.70;1.00;;;;;;5012101;28;20037;-50
2022/05/28 10:43:36;;;;;;;12.63;10.05;;;30.20;1.00;;;;;;5010290;28;20038;-49
2022/05/28 10:46:12;;;;;;;12.15;10.43;;;29.70;1.00;;;;;;5012453;28;20105;-46
2022/05/28 10:49:16;;;;;;;15.40;9.65;;;30.30;1.00;;;;;;5012120;28;20091;-48
2022/05/28 10:52:17;;;;;;;14.38;10.07;;;30.20;1.00;;;;;;5003386;28;20026;-50
2022/05/28 10:54:58;;;;;;;13.93;8.30;;;30.50;1.00;;;;;;4933261;29;20496;-49
2022/05/28 10:57:48;;;;;;;13.48;9.25;;;30.60;1.00;;;;;;5000383;28;20037;-43
2022/05/28 11:00:19;;;;;;;13.05;8.13;;;30.50;1.00;;;;;;5013264;28;20026;-45
2022/05/28 11:03:10;;;;;;;10.65;9.35;;;31.10;1.00;;;;;;5001538;28;20378;-43
2022/05/28 11:06:20;;;;;;;13.73;9.45;;;31.50;1.00;;;;;;5005593;28;20054;-43
2022/05/28 11:08:46;;;;;;;14.18;9.05;;;31.40;1.00;;;;;;4990828;28;20050;-44
2022/05/28 11:11:37;;;;;;;13.55;8.60;;;31.40;1.00;;;;;;5012706;28;20033;-45
2022/05/28 11:14:46;;;;;;;13.95;8.48;;;31.60;1.00;;;;;;5009117;28;20109;-43
2022/05/28 11:17:20;;;;;;;13.65;8.60;;;31.90;1.00;;;;;;4998485;28;20038;-46
2022/05/28 11:19:58;;;;;;;12.88;9.75;;;31.50;1.00;;;;;;5008513;28;20472;-46
2022/05/28 11:22:38;;;;;;;13.05;9.05;;;31.70;1.00;;;;;;5000279;28;20105;-46
2022/05/28 11:25:27;;;;;;;12.73;9.10;;;32.10;1.00;;;;;;5000661;28;20120;-48
2022/05/28 11:28:23;;;;;;;16.40;10.38;;;32.30;1.00;;;;;;5011779;28;20030;-44
2022/05/28 11:30:52;;;;;;;14.23;10.00;;;33.20;1.00;;;;;;5013015;28;20032;-43
2022/05/28 11:33:38;;;;;;;14.52;8.60;;;32.90;1.00;;;;;;5011602;28;20026;-43
2022/05/28 11:36:16;;;;;;;9.35;8.13;;;33.30;1.00;;;;;;5013072;28;20061;-45
2022/05/28 11:38:50;;;;;;;8.93;8.13;;;33.80;1.00;;;;;;5002561;28;20036;-45
2022/05/28 11:41:34;;;;;;;14.40;10.45;;;34.50;1.00;;;;;;5012002;28;20030;-47
2022/05/28 11:44:14;;;;;;;12.77;10.23;;;34.70;1.00;;;;;;5000213;28;20042;-46
2022/05/28 11:46:48;;;;;;;10.32;8.50;;;34.20;1.00;;;;;;5003436;28;20053;-44
2022/05/28 11:52:35;;;;;;;11.18;9.63;;;34.70;1.00;;;;;;5009776;28;20125;-44
2022/05/28 11:55:12;;;;;;;9.88;7.70;;;34.80;1.00;;;;;;4998823;28;20018;-48
2022/05/28 11:57:43;;;;;;;11.10;6.85;;;34.80;1.00;;;;;;5001392;28;20038;-46
2022/05/28 12:00:14;;;;;;;11.50;8.15;;;35.40;1.00;;;;;;5011344;28;20054;-43
2022/05/28 12:03:14;;;;;;;10.30;8.70;;;36.00;1.00;;;;;;5004781;28;20038;-49
2022/05/28 12:05:44;;;;;;;10.90;8.27;;;35.80;1.00;;;;;;5001836;28;20124;-48
2022/05/28 12:08:35;;;;;;;11.52;8.07;;;36.30;1.00;;;;;;5010591;28;20045;-46
2022/05/28 12:11:30;;;;;;;9.70;8.68;;;36.00;1.00;;;;;;5014492;28;20469;-47
2022/05/28 12:13:59;;;;;;;10.05;8.95;;;36.20;1.00;;;;;;5006981;28;20025;-47
2022/05/28 12:16:33;;;;;;;10.38;8.40;;;36.60;1.00;;;;;;5013505;28;20077;-47
2022/05/28 12:19:09;;;;;;;10.20;7.68;;;37.40;1.00;;;;;;5015722;28;20026;-44
2022/05/28 12:21:39;;;;;;;8.00;7.20;;;37.20;1.00;;;;;;5014039;28;20423;-49
2022/05/28 12:24:19;;;;;;;8.98;8.02;;;37.00;1.00;;;;;;4997487;28;20062;-47
2022/05/28 12:27:12;;;;;;;8.45;7.22;;;36.40;1.00;;;;;;5014642;28;20479;-47
2022/05/28 12:29:54;;;;;;;12.43;7.23;;;36.00;1.00;;;;;;5016072;28;20514;-46
2022/05/28 12:32:26;;;;;;;8.32;7.53;;;36.20;1.00;;;;;;5009635;28;20494;-47
2022/05/28 12:34:59;;;;;;;10.57;8.25;;;36.70;1.00;;;;;;5015898;28;20071;-47
2022/05/28 12:37:30;;;;;;;7.32;6.50;;;36.30;1.00;;;;;;5010565;28;20480;-49
2022/05/28 12:39:59;;;;;;;12.20;7.93;;;36.00;1.00;;;;;;5014315;28;20030;-43
2022/05/28 12:42:30;;;;;;;10.63;8.10;;;35.30;1.00;;;;;;5012912;28;20117;-46
2022/05/28 12:44:56;;;;;;;7.63;6.93;;;34.40;1.00;;;;;;5015713;28;20045;-47
2022/05/28 12:47:27;;;;;;;8.43;7.10;;;33.90;1.00;;;;;;5014824;28;20041;-45
2022/05/28 12:50:06;;;;;;;10.60;7.10;;;33.50;1.00;;;;;;5015392;28;20116;-43
2022/05/28 12:52:40;;;;;;;11.48;7.32;;;33.30;1.00;;;;;;5012616;28;20037;-43
2022/05/28 12:55:27;;;;;;;9.63;7.60;;;32.90;1.00;;;;;;5013182;28;20021;-44
2022/05/28 12:58:01;;;;;;;10.15;7.20;;;32.80;1.00;;;;;;5005867;28;20538;-44
2022/05/28 13:00:31;;;;;;;11.73;8.00;;;32.80;1.00;;;;;;5015515;28;20041;-44
2022/05/28 13:02:58;;;;;;;10.73;7.35;;;33.40;1.00;;;;;;5009882;28;20088;-43
2022/05/28 13:05:39;;;;;;;10.38;6.95;;;32.70;1.00;;;;;;5012225;28;20115;-48
2022/05/28 13:08:17;;;;;;;8.93;7.32;;;33.00;1.00;;;;;;5015271;28;20040;-43
2022/05/28 13:11:05;;;;;;;7.95;6.47;;;33.40;1.00;;;;;;5013989;28;20022;-44
2022/05/28 13:13:50;;;;;;;9.38;6.78;;;34.70;1.00;;;;;;5014552;28;20108;-47
2022/05/28 13:16:39;;;;;;;10.57;7.63;;;35.00;1.00;;;;;;4999125;28;20477;-51
2022/05/28 13:19:35;;;;;;;12.70;8.45;;;34.20;1.00;;;;;;4999566;28;20025;-48
2022/05/28 13:22:29;;;;;;;9.57;7.72;;;34.40;1.00;;;;;;5007235;28;20077;-44
2022/05/28 13:25:06;;;;;;;9.48;7.30;;;34.80;1.00;;;;;;5003539;28;20038;-44